Time;durP1;ratioP1;P1;durP2;ratioP2;P2;SDS_P1;SDS_P2;PMS_P1;PMS_P2;Temp;Humidity;BMP_temperature;BMP_pressure;BME280_temperature;BME280_humidity;BME280_pressure;Samples;Min_cycle;Max_cycle;Signal;HPM_P1;HPM_P2
2022/03/06 00:01:28;;;;;;;9.23;3.05;;;;;;;-3.64;69.62;99721.66;5023445;28;20052;-65
2022/03/06 00:03:54;;;;;;;9.27;2.90;;;;;;;-3.58;70.49;99736.41;5039348;28;20063;-66
2022/03/06 00:06:20;;;;;;;9.07;2.95;;;;;;;-3.59;71.08;99739.09;5039255;28;20147;-65
2022/03/06 00:08:46;;;;;;;10.57;3.15;;;;;;;-3.67;71.48;99737.63;5023107;28;20141;-65
2022/03/06 00:11:12;;;;;;;11.52;3.20;;;;;;;-3.74;71.23;99735.28;5039565;28;20047;-67
2022/03/06 00:13:38;;;;;;;9.52;3.25;;;;;;;-3.89;71.91;99742.88;5023318;28;20110;-65
2022/03/06 00:16:04;;;;;;;12.75;3.25;;;;;;;-3.97;72.29;99733.53;5056746;28;20067;-66
2022/03/06 00:18:31;;;;;;;12.23;3.10;;;;;;;-3.95;72.38;99739.59;5022524;28;20048;-65
2022/03/06 00:20:59;;;;;;;11.07;3.28;;;;;;;-4.04;72.99;99734.69;5039568;28;20060;-66
2022/03/06 00:23:25;;;;;;;12.30;3.40;;;;;;;-4.09;73.13;99736.66;5056875;28;20142;-66
2022/03/06 00:25:52;;;;;;;10.02;3.50;;;;;;;-4.17;73.45;99732.50;5073764;28;20071;-66
2022/03/06 00:28:18;;;;;;;9.82;3.20;;;;;;;-4.27;73.93;99733.75;5023589;28;20425;-66
2022/03/06 00:30:47;;;;;;;9.85;3.10;;;;;;;-4.29;73.97;99738.22;5040496;28;20368;-65
2022/03/06 00:33:13;;;;;;;12.88;3.65;;;;;;;-4.47;74.78;99738.88;5056072;28;20058;-67
2022/03/06 00:35:39;;;;;;;9.57;2.55;;;;;;;-4.50;75.25;99728.44;5039053;28;20048;-65
2022/03/06 00:38:05;;;;;;;14.00;3.03;;;;;;;-4.64;75.82;99740.34;5038745;28;20133;-65
2022/03/06 00:40:31;;;;;;;12.00;3.55;;;;;;;-4.76;76.69;99724.09;5071924;28;20051;-64
2022/03/06 00:42:57;;;;;;;10.57;3.13;;;;;;;-4.87;76.97;99737.63;5038873;28;20085;-64
2022/03/06 00:45:23;;;;;;;9.85;3.40;;;;;;;-4.92;77.68;99743.06;5038886;28;20052;-65
2022/03/06 00:47:49;;;;;;;12.20;3.08;;;;;;;-5.03;78.00;99729.41;5039160;28;20070;-64
2022/03/06 00:50:15;;;;;;;11.48;3.42;;;;;;;-5.06;78.65;99741.81;5022533;28;20567;-63
2022/03/06 00:52:41;;;;;;;9.65;3.45;;;;;;;-5.15;79.05;99735.94;5055163;28;20059;-66
2022/03/06 00:55:08;;;;;;;14.48;4.30;;;;;;;-5.14;78.78;99732.41;5022210;28;20052;-66
2022/03/06 00:57:34;;;;;;;11.13;3.92;;;;;;;-5.19;79.15;99729.06;5072396;28;20086;-65
2022/03/06 00:59:59;;;;;;;11.70;3.50;;;;;;;-5.21;79.10;99730.88;5038564;28;20087;-65
2022/03/06 01:02:28;;;;;;;12.07;3.13;;;;;;;-5.25;79.33;99729.25;5038786;28;20048;-63
2022/03/06 01:04:54;;;;;;;9.20;3.15;;;;;;;-5.33;79.10;99718.13;5038685;28;20056;-65
2022/03/06 01:07:20;;;;;;;10.95;2.38;;;;;;;-5.27;79.59;99723.16;5038669;28;20116;-64
2022/03/06 01:09:46;;;;;;;10.10;2.67;;;;;;;-5.27;78.91;99724.94;5038670;28;20108;-65
2022/03/06 01:12:12;;;;;;;12.38;2.67;;;;;;;-5.34;79.25;99726.91;5041965;28;20066;-67
2022/03/06 01:14:38;;;;;;;10.00;2.67;;;;;;;-5.40;79.50;99724.50;5042886;28;20068;-65
2022/03/06 01:17:04;;;;;;;13.05;2.65;;;;;;;-5.50;80.63;99723.06;5042523;28;20075;-66
2022/03/06 01:19:30;;;;;;;9.60;3.05;;;;;;;-5.45;80.68;99721.13;5076131;28;20090;-66
2022/03/06 01:21:56;;;;;;;10.10;2.40;;;;;;;-5.50;80.38;99729.19;5059319;28;20087;-67
2022/03/06 01:24:22;;;;;;;9.60;2.63;;;;;;;-5.49;81.21;99719.50;5042127;28;20056;-65
2022/03/06 01:26:48;;;;;;;10.60;2.60;;;;;;;-5.49;80.56;99727.41;5026113;28;20048;-65
2022/03/06 01:29:14;;;;;;;9.98;2.53;;;;;;;-5.49;81.10;99732.69;5059371;28;20449;-64
2022/03/06 01:31:40;;;;;;;12.15;3.13;;;;;;;-5.60;81.44;99725.97;5042568;28;20060;-66
2022/03/06 01:34:06;;;;;;;12.05;3.45;;;;;;;-5.62;81.36;99717.28;5025898;28;20176;-66
2022/03/06 01:36:32;;;;;;;9.85;2.78;;;;;;;-5.70;82.17;99723.69;5041730;28;20059;-66
2022/03/06 01:38:58;;;;;;;9.40;2.88;;;;;;;-5.79;82.15;99713.44;5041638;28;20417;-65
2022/03/06 01:41:25;;;;;;;9.80;3.00;;;;;;;-5.76;82.86;99727.38;5025942;28;20488;-65
2022/03/06 01:43:52;;;;;;;9.45;2.78;;;;;;;-5.81;82.55;99708.25;5042431;28;20116;-65
2022/03/06 01:46:18;;;;;;;6.47;1.58;;;;;;;-5.71;82.58;99714.91;5042049;28;20052;-64
2022/03/06 01:48:44;;;;;;;11.40;2.95;;;;;;;-5.72;83.00;99717.59;5041918;28;20082;-67
2022/03/06 01:51:10;;;;;;;8.05;2.33;;;;;;;-5.76;82.90;99722.09;5025634;28;20080;-65
2022/03/06 01:53:35;;;;;;;12.50;3.53;;;;;;;-5.83;83.09;99718.78;5040679;28;20059;-64
2022/03/06 01:56:02;;;;;;;11.35;3.40;;;;;;;-5.84;83.40;99724.97;5059173;28;20447;-65
2022/03/06 01:58:27;;;;;;;12.05;3.20;;;;;;;-5.88;83.24;99720.72;5042347;28;20051;-65
2022/03/06 02:00:53;;;;;;;9.90;2.90;;;;;;;-6.11;83.31;99696.88;5075096;28;20056;-66
2022/03/06 02:03:19;;;;;;;12.13;3.17;;;;;;;-5.95;83.36;99726.25;5041358;28;20044;-65
2022/03/06 02:05:46;;;;;;;9.00;2.67;;;;;;;-6.02;83.60;99724.72;5041690;28;20460;-65
2022/03/06 02:08:12;;;;;;;13.95;2.90;;;;;;;-6.05;84.42;99724.78;5041796;28;20511;-65
2022/03/06 02:10:37;;;;;;;10.18;2.60;;;;;;;-6.07;84.04;99723.09;5041702;28;20101;-66
2022/03/06 02:13:04;;;;;;;11.85;3.15;;;;;;;-6.07;84.02;99728.34;5041961;28;20052;-66
2022/03/06 02:15:31;;;;;;;13.32;3.42;;;;;;;-6.05;83.31;99725.66;5041616;28;20047;-64
2022/03/06 02:17:57;;;;;;;12.25;3.40;;;;;;;-6.13;83.29;99703.97;5058172;28;20086;-66
2022/03/06 02:20:24;;;;;;;10.77;3.17;;;;;;;-6.09;83.23;99719.63;5057930;28;20043;-65
2022/03/06 02:22:55;;;;;;;8.30;2.88;;;;;;;-6.19;84.04;99705.00;5040249;28;20051;-66
2022/03/06 02:25:28;;;;;;;;;;;;;;;-6.13;83.84;99707.47;5042278;28;20052;-67
2022/03/06 02:27:56;;;;;;;7.82;2.35;;;;;;;-6.23;84.35;99706.00;5041255;28;20015;-66
2022/03/06 02:30:24;;;;;;;14.07;2.50;;;;;;;-6.24;83.84;99704.28;5041444;28;20075;-66
2022/03/06 02:32:51;;;;;;;10.98;3.33;;;;;;;-6.26;84.07;99700.84;5074677;28;20060;-65
2022/03/06 02:35:18;;;;;;;8.90;2.70;;;;;;;-6.19;84.18;99712.91;5041048;28;20056;-67
2022/03/06 02:37:45;;;;;;;11.65;2.83;;;;;;;-6.31;84.00;99702.75;5074497;28;20079;-66
2022/03/06 02:40:12;;;;;;;10.05;3.13;;;;;;;-6.28;84.19;99702.66;5041085;28;20054;-66
2022/03/06 02:42:42;;;;;;;11.05;2.78;;;;;;;-6.31;84.70;99711.50;5042061;28;20052;-66
2022/03/06 02:45:20;;;;;;;10.38;3.05;;;;;;;-6.32;84.90;99698.41;5041719;28;20052;-67
2022/03/06 02:47:47;;;;;;;8.95;2.67;;;;;;;-6.33;84.97;99699.28;5041260;28;20048;-67
2022/03/06 02:50:15;;;;;;;11.18;3.42;;;;;;;-6.31;85.31;99697.50;5041265;28;20067;-66
2022/03/06 02:52:41;;;;;;;11.05;2.97;;;;;;;-6.36;84.58;99697.63;5057354;28;20422;-65
2022/03/06 02:55:09;;;;;;;12.27;3.17;;;;;;;-6.37;85.05;99697.66;5057217;28;20055;-66
2022/03/06 02:57:35;;;;;;;11.07;3.05;;;;;;;-6.40;85.58;99692.47;5024455;28;20052;-65
2022/03/06 03:00:07;;;;;;;10.85;3.42;;;;;;;-6.42;85.21;99704.81;5040325;28;20048;-67
2022/03/06 03:02:34;;;;;;;10.23;3.15;;;;;;;-6.44;85.90;99696.09;5073987;28;20379;-66
2022/03/06 03:05:01;;;;;;;15.90;3.60;;;;;;;-6.46;85.58;99703.19;5057766;28;20131;-65
2022/03/06 03:07:28;;;;;;;11.27;3.22;;;;;;;-6.59;85.75;99676.38;5058115;28;20096;-65
2022/03/06 03:09:54;;;;;;;12.30;2.80;;;;;;;-6.51;85.97;99699.81;5041489;28;20139;-65
2022/03/06 03:12:20;;;;;;;13.38;3.35;;;;;;;-6.49;86.52;99708.53;5041239;28;20085;-65
2022/03/06 03:14:46;;;;;;;12.50;3.17;;;;;;;-6.57;86.10;99691.22;5040827;28;20048;-65
2022/03/06 03:17:12;;;;;;;14.38;3.88;;;;;;;-6.57;86.77;99701.72;5040391;28;20059;-65
2022/03/06 03:19:38;;;;;;;12.18;3.65;;;;;;;-6.64;87.09;99689.66;5056787;28;20081;-64
2022/03/06 03:22:04;;;;;;;12.57;3.97;;;;;;;-6.59;87.29;99695.63;5073661;28;20059;-66
2022/03/06 03:24:30;;;;;;;15.15;4.95;;;;;;;-6.60;87.30;99690.44;5040347;28;20059;-64
2022/03/06 03:26:56;;;;;;;15.57;4.65;;;;;;;-6.61;87.30;99694.84;5040884;28;20081;-66
2022/03/06 03:29:22;;;;;;;8.98;2.75;;;;;;;-6.62;87.83;99690.50;5040242;28;20526;-66
2022/03/06 03:31:48;;;;;;;14.30;4.50;;;;;;;-6.79;87.95;99653.28;5040541;28;20091;-65
2022/03/06 03:34:14;;;;;;;14.65;4.20;;;;;;;-6.69;88.00;99678.41;5057948;28;20055;-65
2022/03/06 03:36:40;;;;;;;16.77;4.82;;;;;;;-6.79;87.80;99674.31;5040543;28;20060;-65
2022/03/06 03:39:06;;;;;;;12.90;3.67;;;;;;;-6.86;88.03;99678.88;5040644;28;20055;-65
2022/03/06 03:41:33;;;;;;;17.90;3.88;;;;;;;-6.98;88.66;99657.31;5056402;28;20056;-65
2022/03/06 03:43:59;;;;;;;13.52;3.35;;;;;;;-6.93;88.82;99672.06;5039578;28;20191;-66
2022/03/06 03:46:24;;;;;;;13.30;3.67;;;;;;;-6.96;89.03;99681.78;5039710;28;20067;-65
2022/03/06 03:48:50;;;;;;;17.40;3.88;;;;;;;-6.95;88.83;99667.75;5040456;28;20544;-64
2022/03/06 03:51:16;;;;;;;15.35;3.78;;;;;;;-7.10;89.12;99648.88;5040669;28;20060;-65
2022/03/06 03:53:42;;;;;;;18.00;3.17;;;;;;;-7.17;89.23;99642.03;5040445;28;20047;-65
2022/03/06 03:56:08;;;;;;;12.77;3.50;;;;;;;-7.04;89.14;99666.25;5073812;28;20052;-65
2022/03/06 03:58:34;;;;;;;12.18;3.40;;;;;;;-7.03;89.24;99668.81;5057476;28;20051;-66
2022/03/06 04:01:00;;;;;;;12.68;3.13;;;;;;;-7.00;89.25;99669.66;5039823;28;20058;-66
2022/03/06 04:03:27;;;;;;;13.40;3.72;;;;;;;-7.04;89.49;99659.22;5056120;28;20143;-67
2022/03/06 04:05:53;;;;;;;14.68;3.72;;;;;;;-7.05;89.40;99672.41;5039938;28;20055;-68
2022/03/06 04:08:19;;;;;;;21.25;3.95;;;;;;;-7.10;89.34;99658.50;5040515;28;20047;-66
2022/03/06 04:10:45;;;;;;;12.43;4.05;;;;;;;-7.11;89.81;99662.91;5039654;28;20508;-65
2022/03/06 04:13:11;;;;;;;13.18;3.70;;;;;;;-7.16;89.58;99656.94;5057016;28;20173;-66
2022/03/06 04:15:37;;;;;;;13.20;3.88;;;;;;;-7.19;89.67;99654.38;5056896;28;20557;-66
2022/03/06 04:18:03;;;;;;;18.85;5.50;;;;;;;-7.15;89.84;99656.00;5039376;28;20121;-66
2022/03/06 04:20:30;;;;;;;14.70;5.05;;;;;;;-7.12;90.09;99655.94;5039598;28;20557;-66
2022/03/06 04:22:56;;;;;;;12.25;3.83;;;;;;;-7.18;90.11;99648.22;5040315;28;20149;-66
2022/03/06 04:25:22;;;;;;;13.55;3.47;;;;;;;-7.18;90.11;99650.84;5073282;28;20518;-67
2022/03/06 04:27:48;;;;;;;16.00;4.35;;;;;;;-7.16;89.98;99651.66;5056572;28;20586;-66
2022/03/06 04:30:14;;;;;;;18.33;5.57;;;;;;;-7.18;90.23;99655.22;5023338;28;20135;-66
2022/03/06 04:32:40;;;;;;;13.07;4.97;;;;;;;-7.27;90.42;99651.09;5056512;28;20048;-66
2022/03/06 04:35:06;;;;;;;20.65;5.47;;;;;;;-7.49;89.75;99626.28;5056188;28;20092;-66
2022/03/06 04:37:33;;;;;;;21.08;6.15;;;;;;;-7.40;90.03;99655.78;5056320;28;20139;-67
2022/03/06 04:39:59;;;;;;;16.17;4.93;;;;;;;-7.43;89.99;99649.75;5022774;28;20483;-66
2022/03/06 04:42:25;;;;;;;16.85;4.90;;;;;;;-7.44;90.54;99648.91;5023240;28;20091;-66
2022/03/06 04:44:50;;;;;;;13.77;4.30;;;;;;;-7.42;90.57;99651.47;5023231;28;20083;-65
2022/03/06 04:47:16;;;;;;;13.07;4.00;;;;;;;-7.39;90.38;99643.50;5042949;28;20535;-66
2022/03/06 04:49:42;;;;;;;16.27;4.28;;;;;;;-7.29;90.43;99639.75;5023297;28;20151;-67
2022/03/06 04:52:08;;;;;;;18.60;4.78;;;;;;;-7.29;90.36;99638.00;5072009;28;20059;-69
2022/03/06 04:54:34;;;;;;;17.00;4.03;;;;;;;-7.25;90.50;99638.78;5022809;28;20058;-69
2022/03/06 04:57:03;;;;;;;19.13;4.93;;;;;;;-7.21;89.25;99634.31;5042595;28;20131;-68
2022/03/06 04:59:29;;;;;;;9.95;3.33;;;;;;;-7.17;89.34;99635.94;5025164;28;20048;-68
2022/03/06 05:01:55;;;;;;;8.85;2.00;;;;;;;-7.13;88.98;99630.59;5044306;28;20047;-68
2022/03/06 05:04:21;;;;;;;14.63;4.15;;;;;;;-7.12;88.37;99634.94;5027098;28;20044;-68
2022/03/06 05:06:47;;;;;;;13.60;4.35;;;;;;;-6.99;88.31;99629.31;5059521;28;20530;-68
2022/03/06 05:09:13;;;;;;;15.82;4.40;;;;;;;-6.93;87.77;99623.91;5058641;28;20518;-68
2022/03/06 05:11:39;;;;;;;12.48;4.22;;;;;;;-6.84;87.12;99627.16;5058246;28;20081;-67
2022/03/06 05:14:05;;;;;;;13.32;4.18;;;;;;;-6.82;86.76;99621.84;5041752;28;20466;-69
2022/03/06 05:16:31;;;;;;;15.73;5.20;;;;;;;-6.69;86.51;99628.47;5025915;28;20404;-67
2022/03/06 05:18:57;;;;;;;14.15;4.45;;;;;;;-6.68;85.66;99617.06;5024751;28;20052;-68
2022/03/06 05:21:23;;;;;;;16.80;4.50;;;;;;;-6.51;85.20;99623.56;5016650;28;20507;-68
2022/03/06 05:23:49;;;;;;;16.58;4.53;;;;;;;-6.52;85.02;99616.59;5022618;28;20105;-68
2022/03/06 05:26:15;;;;;;;21.38;4.85;;;;;;;-6.41;84.34;99628.50;5022486;28;20458;-67
2022/03/06 05:28:41;;;;;;;14.68;4.30;;;;;;;-6.23;83.92;99615.72;5022188;28;20102;-67
2022/03/06 05:31:10;;;;;;;28.73;4.95;;;;;;;-6.07;82.99;99622.22;5038622;28;20052;-67
2022/03/06 05:33:37;;;;;;;14.00;5.47;;;;;;;-5.87;81.44;99618.94;5038725;28;20086;-67
2022/03/06 05:36:03;;;;;;;16.55;4.97;;;;;;;-4.01;76.46;99615.78;5055085;28;20138;-68
2022/03/06 05:38:29;;;;;;;22.30;5.20;;;;;;;-2.76;68.60;99615.75;5038204;28;20426;-68
2022/03/06 05:41:01;;;;;;;11.05;3.35;;;;;;;-1.94;64.44;99581.03;5039327;28;20491;-69
2022/03/06 05:43:27;;;;;;;11.90;3.67;;;;;;;-1.07;60.78;99602.31;5022283;28;20055;-68
2022/03/06 05:45:53;;;;;;;14.55;4.00;;;;;;;0.17;57.32;99598.25;5038816;28;20063;-67
2022/03/06 05:48:20;;;;;;;16.27;4.53;;;;;;;0.13;55.62;99592.25;5056883;28;20138;-66
2022/03/06 05:50:46;;;;;;;10.95;3.50;;;;;;;0.14;56.12;99601.06;5039416;28;20163;-70
2022/03/06 05:53:12;;;;;;;20.15;3.65;;;;;;;0.89;54.08;99596.72;5093555;28;20074;-69
2022/03/06 05:55:38;;;;;;;12.10;3.45;;;;;;;1.75;51.10;99583.44;5024114;28;20059;-70
2022/03/06 05:58:04;;;;;;;13.82;3.83;;;;;;;1.91;49.09;99565.53;5024813;28;20044;-70
2022/03/06 06:00:30;;;;;;;13.63;4.47;;;;;;;2.48;47.88;99589.34;5041660;28;20056;-67
2022/03/06 06:02:56;;;;;;;13.20;4.63;;;;;;;2.48;47.28;99575.16;5029146;28;20052;-70
2022/03/06 06:05:22;;;;;;;13.98;4.65;;;;;;;2.49;46.92;99583.06;5027549;28;20100;-70
2022/03/06 06:07:49;;;;;;;14.70;3.92;;;;;;;3.10;46.56;99589.56;5037845;28;20584;-68
2022/03/06 06:10:15;;;;;;;16.90;4.18;;;;;;;3.39;44.72;99589.38;5054279;28;20044;-70
2022/03/06 06:12:41;;;;;;;15.48;4.93;;;;;;;3.06;45.19;99590.75;5033291;28;20277;-66
2022/03/06 06:15:08;;;;;;;12.25;3.95;;;;;;;3.93;43.79;99583.75;5018963;28;20456;-71
2022/03/06 06:17:35;;;;;;;13.18;4.28;;;;;;;3.92;42.02;99582.03;5043015;28;20063;-70
2022/03/06 06:20:04;;;;;;;11.75;3.85;;;;;;;4.26;41.89;99564.38;5029980;28;20487;-69
2022/03/06 06:22:31;;;;;;;17.70;4.10;;;;;;;4.58;42.13;99575.38;5026752;28;20053;-68
2022/03/06 06:24:58;;;;;;;14.18;4.43;;;;;;;5.63;39.65;99588.75;5051888;28;20083;-70
2022/03/06 06:27:25;;;;;;;26.60;6.10;;;;;;;6.03;38.24;99576.59;5022649;28;20067;-75
2022/03/06 06:29:51;;;;;;;17.80;4.90;;;;;;;6.11;37.34;99580.50;5022456;28;20151;-68
2022/03/06 06:32:17;;;;;;;17.40;4.80;;;;;;;6.02;37.70;99580.22;5021397;28;20063;-72
2022/03/06 06:34:44;;;;;;;15.23;4.00;;;;;;;6.01;37.72;99573.16;5018216;28;20056;-68
2022/03/06 06:37:11;;;;;;;13.57;4.13;;;;;;;6.10;37.42;99570.72;5035033;28;20048;-66
2022/03/06 06:39:38;;;;;;;17.88;3.75;;;;;;;7.34;34.68;99571.88;5061146;28;20063;-69
2022/03/06 06:42:05;;;;;;;15.85;3.90;;;;;;;6.16;36.15;99571.06;5036264;28;20568;-65
2022/03/06 06:44:32;;;;;;;12.73;3.55;;;;;;;7.59;35.40;99567.91;5055621;28;20048;-67
2022/03/06 06:46:58;;;;;;;17.30;5.22;;;;;;;6.52;35.26;99561.81;5055584;28;20422;-74
2022/03/06 06:49:24;;;;;;;15.35;3.70;;;;;;;5.89;37.13;99558.03;5038041;28;20140;-73
2022/03/06 06:51:50;;;;;;;16.00;3.78;;;;;;;6.32;36.13;99548.31;5042023;28;20057;-69
2022/03/06 06:54:16;;;;;;;11.15;3.90;;;;;;;6.97;34.76;99550.84;5042404;28;20442;-73
2022/03/06 06:56:43;;;;;;;13.80;3.40;;;;;;;6.99;34.46;99543.53;5019514;28;20060;-72
2022/03/06 06:59:09;;;;;;;13.32;3.50;;;;;;;7.06;35.21;99542.97;5029126;28;20419;-73
2022/03/06 07:01:35;;;;;;;15.32;3.53;;;;;;;7.32;33.45;99541.59;5028825;28;20048;-75
2022/03/06 07:04:02;;;;;;;13.10;3.85;;;;;;;7.70;33.36;99537.38;5059242;28;20041;-74
2022/03/06 07:06:28;;;;;;;15.30;3.72;;;;;;;7.53;33.74;99524.56;5048737;28;20487;-71
2022/03/06 07:08:54;;;;;;;16.75;4.60;;;;;;;7.88;33.61;99516.91;5027166;28;20040;-72
2022/03/06 07:11:20;;;;;;;10.20;3.85;;;;;;;8.19;32.07;99522.19;5016363;28;20060;-73
2022/03/06 07:13:50;;;;;;;10.55;4.05;;;;;;;7.54;32.86;99537.03;5059481;28;20052;-75
2022/03/06 07:16:16;;;;;;;;;;;;;;;8.26;32.58;99517.97;5078918;28;20144;-76
2022/03/06 07:18:42;;;;;;;13.50;4.22;;;;;;;7.53;33.79;99511.09;5022973;28;19980;-68
2022/03/06 07:21:11;;;;;;;11.40;3.90;;;;;;;8.79;31.85;99506.81;5045502;28;20409;-73
2022/03/06 07:23:37;;;;;;;18.70;3.75;;;;;;;9.54;31.05;99521.28;5033301;28;20105;-68
2022/03/06 07:26:03;;;;;;;15.05;3.53;;;;;;;9.28;31.00;99509.41;5004917;28;20062;-68
2022/03/06 07:28:30;;;;;;;13.18;3.33;;;;;;;10.50;29.21;99507.38;5009715;28;20087;-68
2022/03/06 07:30:56;;;;;;;11.70;3.38;;;;;;;10.90;29.03;99508.75;5015709;28;20141;-68
2022/03/06 07:33:22;;;;;;;10.40;3.10;;;;;;;9.79;30.08;99497.28;5019558;28;20498;-75
2022/03/06 07:35:48;;;;;;;12.25;3.80;;;;;;;11.50;27.45;99511.50;5032233;28;20064;-68
2022/03/06 07:38:14;;;;;;;21.35;3.22;;;;;;;11.12;27.97;99507.41;5020220;28;20094;-72
2022/03/06 07:40:40;;;;;;;16.95;3.20;;;;;;;10.86;27.59;99506.34;5018080;28;20052;-74
2022/03/06 07:43:06;;;;;;;15.60;3.45;;;;;;;8.52;31.09;99512.06;5015817;28;20045;-68
2022/03/06 07:45:32;;;;;;;12.02;4.18;;;;;;;8.05;31.33;99509.16;5016809;28;20045;-70
2022/03/06 07:47:58;;;;;;;10.68;3.60;;;;;;;8.93;30.83;99479.41;5033118;28;20052;-71
2022/03/06 07:50:26;;;;;;;11.43;4.40;;;;;;;10.53;28.40;99501.63;4998531;28;20554;-73
2022/03/06 07:52:53;;;;;;;11.73;3.38;;;;;;;11.55;26.97;99504.63;5016312;28;20049;-78
2022/03/06 07:55:19;;;;;;;9.70;2.92;;;;;;;10.90;27.48;99484.41;5048676;28;20040;-74
2022/03/06 07:57:45;;;;;;;13.68;3.42;;;;;;;9.80;29.19;99512.47;5085388;28;20096;-76
2022/03/06 08:00:16;;;;;;;14.65;2.95;;;;;;;10.82;27.99;99491.44;5029332;28;20036;-78
2022/03/06 08:05:32;;;;;;;9.25;3.30;;;;;;;12.27;26.23;99491.53;3205794;26;20139;-75
2022/03/06 08:07:58;;;;;;;13.50;2.88;;;;;;;12.13;25.44;99484.03;5032512;28;20044;-75
2022/03/06 08:10:24;;;;;;;18.13;2.63;;;;;;;11.76;26.09;99481.69;5039110;28;20055;-74
2022/03/06 08:12:51;;;;;;;14.70;2.47;;;;;;;11.76;25.67;99479.81;5040646;28;20041;-76
2022/03/06 08:15:18;;;;;;;12.63;2.80;;;;;;;12.71;25.21;99464.13;5010878;28;20055;-69
2022/03/06 08:17:44;;;;;;;11.00;2.85;;;;;;;12.46;24.54;99471.38;5036932;28;20135;-73
2022/03/06 08:20:11;;;;;;;34.40;4.05;;;;;;;11.82;24.72;99462.94;5009654;28;20052;-73
2022/03/06 08:25:43;;;;;;;20.27;14.63;;;;;;;12.37;24.71;99444.47;5068707;28;20055;-72
2022/03/06 08:28:09;;;;;;;13.45;2.90;;;;;;;11.42;25.34;99450.06;5021121;28;20060;-71
2022/03/06 08:30:35;;;;;;;12.40;2.90;;;;;;;12.20;24.66;99444.41;4999285;28;20140;-70
2022/03/06 08:33:02;;;;;;;13.77;3.63;;;;;;;11.70;25.01;99441.69;5025731;28;20094;-73
2022/03/06 08:35:28;;;;;;;13.30;2.90;;;;;;;12.29;25.03;99432.59;5021932;28;20099;-73
2022/03/06 08:37:54;;;;;;;10.57;2.83;;;;;;;12.91;23.82;99404.94;5021968;28;20052;-72
2022/03/06 08:51:24;;;;;;;11.30;2.60;;;;;;;13.44;23.05;99418.91;6209042;22;20363;-73
2022/03/06 08:53:50;;;;;;;10.35;2.60;;;;;;;13.65;22.96;99400.16;6128609;23;20040;-74
2022/03/06 08:56:17;;;;;;;10.73;2.75;;;;;;;13.74;23.09;99396.34;6105019;23;20124;-74
2022/03/06 08:58:42;;;;;;;14.10;2.97;;;;;;;13.62;22.67;99403.22;6129715;23;20024;-71
2022/03/06 09:01:09;;;;;;;15.20;3.08;;;;;;;12.67;24.19;99408.53;6122528;23;20024;-73
2022/03/06 09:03:35;;;;;;;11.68;2.20;;;;;;;12.11;25.06;99393.94;6132202;23;20020;-75
2022/03/06 09:06:01;;;;;;;9.60;2.80;;;;;;;12.23;25.63;99395.31;6137009;23;20028;-70
2022/03/06 09:08:27;;;;;;;13.82;2.95;;;;;;;11.02;26.16;99377.66;6122386;23;20024;-75
2022/03/06 09:10:53;;;;;;;11.20;2.80;;;;;;;12.65;24.33;99391.59;6126044;23;20359;-69
2022/03/06 09:13:19;;;;;;;35.67;3.53;;;;;;;12.91;24.06;99374.25;6115467;23;20029;-70
2022/03/06 09:15:45;;;;;;;13.52;2.40;;;;;;;13.30;23.47;99387.06;6113960;23;20455;-71
2022/03/06 09:18:11;;;;;;;9.68;3.00;;;;;;;13.14;22.59;99377.91;6115385;23;20032;-77
2022/03/06 09:20:37;;;;;;;11.43;2.42;;;;;;;12.83;23.08;99385.94;6112863;23;20454;-69
2022/03/06 09:23:05;;;;;;;12.55;1.88;;;;;;;13.26;22.29;99365.69;6119095;23;20070;-73
2022/03/06 09:25:33;;;;;;;13.27;2.50;;;;;;;12.76;23.72;99368.66;6115910;23;20170;-76
2022/03/06 09:28:00;;;;;;;8.65;2.60;;;;;;;13.03;22.38;99360.13;6149499;23;20124;-75
2022/03/06 09:30:27;;;;;;;10.70;2.53;;;;;;;13.53;22.80;99366.25;6151336;23;20328;-71
2022/03/06 09:32:54;;;;;;;13.40;2.85;;;;;;;13.80;22.32;99361.34;6141540;23;20018;-73
2022/03/06 09:35:20;;;;;;;11.57;3.22;;;;;;;12.62;23.43;99362.09;6122975;23;20054;-77
2022/03/06 09:37:46;;;;;;;10.48;2.28;;;;;;;13.70;22.67;99367.00;6127447;23;20039;-74
2022/03/06 09:40:14;;;;;;;6.85;2.38;;;;;;;14.46;22.29;99316.31;6099269;23;20021;-79
2022/03/06 09:42:41;;;;;;;9.90;2.40;;;;;;;13.88;21.87;99301.53;6158092;23;20031;-76
2022/03/06 09:45:09;;;;;;;11.25;2.45;;;;;;;15.02;21.24;99363.06;6131295;23;20473;-75
2022/03/06 09:47:37;;;;;;;11.80;2.70;;;;;;;12.58;23.04;99284.81;6158580;23;20395;-79
2022/03/06 09:50:05;;;;;;;10.82;2.53;;;;;;;13.39;22.80;99348.00;6174070;23;20031;-78
2022/03/06 09:52:31;;;;;;;9.95;2.53;;;;;;;12.91;22.78;99339.84;6095140;23;20036;-75
2022/03/06 09:54:57;;;;;;;9.60;2.38;;;;;;;13.13;23.13;99335.53;6106333;23;20021;-70
2022/03/06 09:57:23;;;;;;;9.88;2.80;;;;;;;14.88;21.54;99355.72;6083550;23;20036;-69
2022/03/06 09:59:49;;;;;;;11.80;2.80;;;;;;;13.93;21.77;99342.56;6139550;23;20043;-75
2022/03/06 10:02:16;;;;;;;9.90;2.53;;;;;;;13.89;21.66;99338.53;6110559;23;20032;-73
2022/03/06 10:04:42;;;;;;;15.18;2.38;;;;;;;12.24;23.38;99344.66;6156213;23;20036;-68
2022/03/06 10:07:19;;;;;;;9.73;2.45;;;;;;;12.58;23.63;99328.22;6107388;23;20021;-72
2022/03/06 10:09:47;;;;;;;13.85;2.90;;;;;;;10.54;25.21;99341.19;6162174;23;20027;-73
2022/03/06 10:12:27;;;;;;;9.57;2.20;;;;;;;10.43;25.06;99317.97;6136948;23;20017;-75
2022/03/06 10:14:56;;;;;;;11.63;2.85;;;;;;;11.96;24.13;99317.06;6157041;23;20484;-67
2022/03/06 10:17:24;;;;;;;18.02;2.80;;;;;;;12.71;23.08;99306.81;6128759;23;20369;-66
2022/03/06 10:20:04;;;;;;;9.88;2.50;;;;;;;12.74;22.99;99309.19;6130052;23;20510;-72
2022/03/06 10:22:35;;;;;;;9.25;2.72;;;;;;;13.74;22.12;99314.00;6157018;23;20048;-75
2022/03/06 10:25:16;;;;;;;9.40;3.13;;;;;;;13.09;23.18;99298.91;6105804;23;20155;-69
2022/03/06 10:27:54;;;;;;;11.02;2.92;;;;;;;12.55;22.89;99293.28;6129388;23;20025;-70
2022/03/06 10:30:30;;;;;;;9.77;2.50;;;;;;;12.25;24.02;99293.00;6129826;23;20333;-70
2022/03/06 10:32:58;;;;;;;8.20;2.83;;;;;;;11.79;23.80;99289.91;6105049;23;20036;-71
2022/03/06 10:35:36;;;;;;;10.65;2.25;;;;;;;11.56;24.51;99291.59;6154375;23;20019;-73
2022/03/06 10:38:30;;;;;;;12.93;2.80;;;;;;;11.14;25.43;99291.63;6136758;23;20307;-78
2022/03/06 10:41:09;;;;;;;11.27;2.83;;;;;;;12.38;24.65;99264.53;6126925;23;20072;-72
2022/03/06 10:43:35;;;;;;;8.98;2.92;;;;;;;11.84;23.81;99289.44;6156288;23;20028;-68
2022/03/06 10:46:12;;;;;;;7.38;2.38;;;;;;;11.51;24.45;99285.81;6105653;23;20430;-72
2022/03/06 10:48:40;;;;;;;10.45;2.85;;;;;;;12.63;24.14;99265.31;6158035;23;20030;-73
2022/03/06 10:51:08;;;;;;;13.55;3.17;;;;;;;11.37;24.28;99272.91;6156267;23;20036;-73
2022/03/06 10:53:34;;;;;;;13.02;2.40;;;;;;;10.27;25.35;99264.66;6109719;23;20040;-71
2022/03/06 10:56:14;;;;;;;57.28;5.32;;;;;;;8.86;27.40;99259.94;6107743;23;20025;-68
2022/03/06 10:58:42;;;;;;;9.05;2.20;;;;;;;10.32;26.18;99250.69;6157615;23;20017;-73
2022/03/06 11:01:08;;;;;;;10.10;2.15;;;;;;;9.29;27.67;99246.78;6155737;23;20028;-67
2022/03/06 11:03:35;;;;;;;11.02;2.55;;;;;;;7.79;28.88;99245.97;6104056;23;20021;-68
2022/03/06 11:06:07;;;;;;;10.75;2.20;;;;;;;6.80;31.26;99230.88;6084728;23;20087;-68
2022/03/06 11:08:34;;;;;;;9.93;2.03;;;;;;;6.47;31.38;99239.13;6130645;23;20073;-68
2022/03/06 11:11:01;;;;;;;7.38;2.10;;;;;;;8.00;29.63;99236.84;6155016;23;20020;-70
2022/03/06 11:13:28;;;;;;;8.13;2.10;;;;;;;7.86;29.53;99225.56;6108453;23;20095;-70
2022/03/06 11:15:56;;;;;;;12.63;2.25;;;;;;;7.47;30.18;99230.97;6084140;23;20083;-69
2022/03/06 11:18:26;;;;;;;8.27;2.10;;;;;;;6.91;30.70;99199.38;6084224;23;20023;-70
2022/03/06 11:20:54;;;;;;;10.88;2.35;;;;;;;6.62;31.01;99201.13;6108118;23;20166;-70
2022/03/06 11:23:29;;;;;;;10.32;2.50;;;;;;;6.25;31.94;99231.22;6130592;23;20017;-70
2022/03/06 11:26:05;;;;;;;8.55;2.33;;;;;;;6.80;31.82;99209.38;6129771;23;20029;-68
2022/03/06 11:28:34;;;;;;;9.15;2.25;;;;;;;6.08;32.51;99202.34;6156625;23;20084;-68
2022/03/06 11:31:00;;;;;;;11.43;2.05;;;;;;;6.08;32.83;99194.31;6153376;23;20095;-69
2022/03/06 11:33:26;;;;;;;9.98;1.90;;;;;;;5.59;34.09;99185.09;6130484;23;20410;-66
2022/03/06 11:35:52;;;;;;;12.68;2.38;;;;;;;5.78;33.11;99187.91;6130992;23;20017;-68
2022/03/06 11:38:20;;;;;;;18.58;2.42;;;;;;;6.07;32.65;99184.53;6106881;23;20444;-66
2022/03/06 11:40:49;;;;;;;14.60;2.20;;;;;;;6.19;31.43;99136.03;6153791;23;20020;-69
2022/03/06 11:43:30;;;;;;;8.98;2.35;;;;;;;6.62;32.21;99174.28;6105173;23;20060;-67
2022/03/06 11:46:09;;;;;;;7.50;2.03;;;;;;;6.97;31.18;99168.41;6105038;23;20017;-68